Blair, Illinois
Current Conditions -  °F | °C
As of 6:15 PM on Monday 20 Oct 2014 (Local Time) from KFOA Reporting Station
Clear Clear  
Wind Chill: 19°   Ceiling: Unl
Heat Index: 19°   Visibility: 10mi
Dew Point:   Wind: 6mph
Humidity: 45%   Direction: 310°NW
Pressure: 29.94"   Gusts: NA
Location:  38.8267°N, 88.5024°W
Report Text: KFOA 202315Z AUTO 31005KT 10SM CLR 19/06 A2994 RMK AO2 T01850063
Loading
Personal Weather Stations






























Interactive Weather Map
Tropical Storm Tracking
New forecast layout! Learn more

10-Day Weather Forecast

Advertisements
Track Severe Weather on mobile